createdAt,value
2022-12-15T00:02:05.229Z,64.46
2022-12-15T00:04:49.999Z,64.44
2022-12-15T00:07:34.980Z,64.53
2022-12-15T00:10:19.995Z,64.45
2022-12-15T00:13:04.897Z,64.76
2022-12-15T00:15:49.862Z,64.56
2022-12-15T00:18:34.647Z,64.40
2022-12-15T00:21:19.765Z,64.73
2022-12-15T00:24:04.628Z,64.67
2022-12-15T00:26:49.737Z,64.83
2022-12-15T00:29:34.463Z,64.68
2022-12-15T00:32:19.743Z,64.49
2022-12-15T00:35:04.688Z,64.58
2022-12-15T00:37:49.659Z,64.24
2022-12-15T00:40:16.127Z,64.84
2022-12-15T00:42:42.484Z,64.17
2022-12-15T00:45:09.277Z,64.68
2022-12-15T00:47:36.460Z,64.67
2022-12-15T00:50:22.030Z,64.34
2022-12-15T00:53:07.331Z,64.28
2022-12-15T00:55:52.232Z,64.52
2022-12-15T00:58:37.492Z,64.66
2022-12-15T01:01:27.403Z,64.27
2022-12-15T01:04:12.748Z,64.17
2022-12-15T01:06:57.993Z,64.31
2022-12-15T01:09:43.512Z,64.41
2022-12-15T01:12:28.350Z,64.85
2022-12-15T01:15:13.213Z,64.07
2022-12-15T01:17:57.843Z,64.34
2022-12-15T01:20:25.323Z,64.47
2022-12-15T01:22:54.789Z,64.30
2022-12-15T01:25:24.162Z,64.49
2022-12-15T01:27:50.910Z,64.62
2022-12-15T01:30:20.974Z,64.42
2022-12-15T01:32:47.627Z,64.31
2022-12-15T01:35:14.589Z,63.99
2022-12-15T01:37:41.102Z,64.50
2022-12-15T01:40:30.580Z,64.42
2022-12-15T01:42:56.934Z,64.24
2022-12-15T01:45:29.432Z,64.54
2022-12-15T01:48:12.604Z,64.55
2022-12-15T01:50:45.140Z,64.48
2022-12-15T01:53:14.149Z,64.53
2022-12-15T01:55:44.197Z,64.46
2022-12-15T01:58:17.268Z,64.43
2022-12-15T02:00:43.777Z,64.64
2022-12-15T02:03:10.751Z,64.37
2022-12-15T02:05:39.807Z,64.53
2022-12-15T02:08:06.867Z,64.48
2022-12-15T02:14:05.740Z,64.71
2022-12-15T02:16:41.099Z,64.68
2022-12-15T02:19:16.598Z,64.48
2022-12-15T02:21:54.220Z,64.48
2022-12-15T02:24:39.805Z,64.80
2022-12-15T02:27:22.677Z,64.77
2022-12-15T02:30:30.601Z,64.93
2022-12-15T02:33:21.753Z,64.23
2022-12-15T02:36:04.455Z,64.63
2022-12-15T02:38:41.440Z,64.80
2022-12-15T02:41:44.046Z,64.33
2022-12-15T02:44:16.027Z,64.72
2022-12-15T02:47:12.929Z,64.60
2022-12-15T02:50:01.375Z,64.28
2022-12-15T02:53:00.176Z,64.08
2022-12-15T02:55:35.820Z,64.61
2022-12-15T02:58:35.610Z,64.54
2022-12-15T03:01:28.298Z,64.93
2022-12-15T03:03:56.011Z,64.51
2022-12-15T03:06:25.076Z,64.58
2022-12-15T03:08:51.431Z,64.86
2022-12-15T03:11:17.954Z,64.56
2022-12-15T03:13:44.380Z,64.36
2022-12-15T03:16:10.870Z,64.47
2022-12-15T03:18:37.368Z,64.51
2022-12-15T03:21:03.915Z,64.66
2022-12-15T03:23:30.686Z,64.64
2022-12-15T03:25:57.255Z,64.68
2022-12-15T03:28:24.438Z,64.59
2022-12-15T03:30:50.941Z,64.39
2022-12-15T03:33:18.121Z,64.63
2022-12-15T03:35:44.550Z,64.67
2022-12-15T03:38:10.902Z,64.85
2022-12-15T03:40:37.268Z,64.80
2022-12-15T03:43:03.700Z,64.47
2022-12-15T03:45:30.031Z,64.67
2022-12-15T03:47:58.002Z,64.64
2022-12-15T03:50:26.399Z,64.53
2022-12-15T03:52:54.998Z,64.56
2022-12-15T03:55:22.350Z,64.44
2022-12-15T03:57:49.350Z,64.98
2022-12-15T04:00:16.198Z,64.62
2022-12-15T04:02:43.716Z,64.58
2022-12-15T04:05:27.904Z,64.61
2022-12-15T04:07:55.704Z,64.76
2022-12-15T04:10:26.268Z,64.69
2022-12-15T04:13:05.407Z,64.73
2022-12-15T04:15:32.691Z,64.81
2022-12-15T04:18:01.953Z,64.64
2022-12-15T04:20:29.045Z,64.92
2022-12-15T04:22:55.520Z,64.77
2022-12-15T04:25:42.838Z,64.69
2022-12-15T04:28:29.785Z,64.68
2022-12-15T04:31:19.258Z,64.87
2022-12-15T04:34:08.582Z,64.70
2022-12-15T04:36:55.256Z,64.69
2022-12-15T04:39:40.581Z,64.94
2022-12-15T04:42:25.571Z,64.80
2022-12-15T04:45:16.999Z,64.65
2022-12-15T04:48:05.105Z,64.65
2022-12-15T04:50:49.976Z,64.95
2022-12-15T04:53:36.778Z,64.81
2022-12-15T04:56:22.515Z,64.82
2022-12-15T04:59:07.917Z,65.10
2022-12-15T05:01:53.305Z,64.81
2022-12-15T05:04:38.594Z,64.92
2022-12-15T05:07:23.456Z,65.09
2022-12-15T05:10:14.607Z,64.85
2022-12-15T05:13:00.395Z,64.77
2022-12-15T05:15:45.166Z,64.63
2022-12-15T05:18:29.885Z,65.07
2022-12-15T05:21:16.786Z,64.59
2022-12-15T05:24:02.067Z,65.15
2022-12-15T05:26:52.286Z,64.98
2022-12-15T05:29:38.270Z,65.02
2022-12-15T05:32:04.726Z,64.70
2022-12-15T05:34:32.986Z,65.00
2022-12-15T05:37:01.717Z,65.23
2022-12-15T05:39:29.476Z,65.11
2022-12-15T05:41:56.663Z,65.18
2022-12-15T05:44:26.398Z,64.89
2022-12-15T05:46:53.325Z,65.54
2022-12-15T05:49:20.650Z,65.28
2022-12-15T05:51:47.781Z,65.28
2022-12-15T05:54:17.045Z,65.46
2022-12-15T05:56:44.265Z,65.63
2022-12-15T05:59:10.797Z,65.32
2022-12-15T06:01:37.284Z,65.07
2022-12-15T06:04:04.830Z,65.06
2022-12-15T06:06:31.410Z,65.16
2022-12-15T06:08:58.196Z,65.60
2022-12-15T06:11:24.555Z,65.58
2022-12-15T06:13:50.933Z,65.37
2022-12-15T06:16:19.990Z,65.33
2022-12-15T06:18:50.455Z,65.53
2022-12-15T06:21:19.712Z,65.46
2022-12-15T06:23:46.547Z,65.50
2022-12-15T06:26:21.578Z,65.65
2022-12-15T06:28:48.888Z,65.40
2022-12-15T06:31:17.806Z,65.55
2022-12-15T06:33:44.349Z,65.50
2022-12-15T06:36:13.833Z,65.73
2022-12-15T06:38:43.480Z,65.92
2022-12-15T06:41:15.008Z,65.60
2022-12-15T06:43:42.038Z,65.69
2022-12-15T06:46:09.465Z,65.73
2022-12-15T06:48:36.026Z,65.75
2022-12-15T06:51:05.335Z,65.86
2022-12-15T06:53:32.663Z,65.64
2022-12-15T06:56:02.073Z,66.05
2022-12-15T06:58:28.776Z,65.71
2022-12-15T07:00:56.148Z,65.68
2022-12-15T07:03:22.856Z,66.03
2022-12-15T07:06:01.208Z,65.82
2022-12-15T07:08:32.232Z,65.80
2022-12-15T07:11:03.521Z,65.53
2022-12-15T07:13:30.950Z,66.24
2022-12-15T07:16:02.329Z,65.79
2022-12-15T07:18:29.694Z,65.95
2022-12-15T07:20:57.449Z,66.20
2022-12-15T07:23:39.893Z,65.61
2022-12-15T07:26:11.739Z,65.92
2022-12-15T07:28:38.599Z,66.14
2022-12-15T07:31:11.020Z,66.02
2022-12-15T07:33:38.440Z,65.62
2022-12-15T07:36:05.763Z,66.19
2022-12-15T07:38:32.298Z,65.75
2022-12-15T07:41:04.112Z,65.87
2022-12-15T07:43:31.726Z,65.95
2022-12-15T07:45:59.012Z,65.96
2022-12-15T07:48:25.616Z,66.15
2022-12-15T07:51:04.372Z,65.90
2022-12-15T07:53:35.213Z,65.73
2022-12-15T07:56:08.903Z,65.98
2022-12-15T07:58:36.598Z,66.22
2022-12-15T08:01:07.723Z,66.10
2022-12-15T08:03:35.724Z,65.98
2022-12-15T08:06:11.619Z,66.00
2022-12-15T08:08:38.555Z,66.29
2022-12-15T08:11:10.796Z,66.19
2022-12-15T08:14:02.037Z,65.87
2022-12-15T08:16:25.214Z,66.16
2022-12-15T08:18:51.733Z,66.35
2022-12-15T08:21:18.586Z,66.21
2022-12-15T08:23:45.302Z,66.04
2022-12-15T08:26:14.614Z,65.93
2022-12-15T08:28:42.241Z,66.21
2022-12-15T08:31:20.446Z,65.81
2022-12-15T08:33:48.087Z,65.85
2022-12-15T08:36:16.820Z,66.18
2022-12-15T08:38:44.460Z,66.24
2022-12-15T08:41:20.247Z,66.13
2022-12-15T08:43:49.419Z,66.08
2022-12-15T08:46:17.755Z,66.16
2022-12-15T08:48:44.842Z,65.58
2022-12-15T08:51:12.029Z,65.07
2022-12-15T08:53:38.679Z,65.30
2022-12-15T08:56:07.194Z,65.55
2022-12-15T08:58:34.147Z,65.20
2022-12-15T09:01:02.420Z,65.57
2022-12-15T09:03:29.618Z,65.62
2022-12-15T09:05:57.637Z,65.65
2022-12-15T09:08:24.537Z,65.51
2022-12-15T09:10:52.630Z,65.63
2022-12-15T09:13:19.319Z,65.60
2022-12-15T09:16:08.917Z,65.57
2022-12-15T09:18:33.790Z,65.55
2022-12-15T09:21:04.636Z,65.84
2022-12-15T09:23:31.967Z,65.81
2022-12-15T09:26:10.673Z,65.68
2022-12-15T09:28:38.391Z,66.17
2022-12-15T09:31:13.317Z,66.17
2022-12-15T09:33:41.694Z,66.09
2022-12-15T09:36:09.459Z,65.97
2022-12-15T09:38:40.324Z,66.29
2022-12-15T09:41:09.894Z,66.02
2022-12-15T09:43:46.756Z,66.09
2022-12-15T09:46:39.844Z,66.56
2022-12-15T09:49:19.407Z,67.46
2022-12-15T09:52:05.918Z,67.97
2022-12-15T09:54:37.516Z,69.98
2022-12-15T09:57:44.808Z,71.91
2022-12-15T10:00:25.792Z,71.62
2022-12-15T10:03:07.980Z,72.08
2022-12-15T10:06:16.040Z,72.54
2022-12-15T10:08:50.434Z,72.17
2022-12-15T10:11:56.953Z,71.94
2022-12-15T10:14:30.357Z,72.02
2022-12-15T10:17:06.817Z,71.20
2022-12-15T10:19:42.280Z,71.46
2022-12-15T10:22:13.877Z,70.63
2022-12-15T10:28:05.158Z,71.05
2022-12-15T10:30:32.001Z,70.88
2022-12-15T10:33:10.757Z,70.28
2022-12-15T10:35:39.722Z,70.28
2022-12-15T10:38:13.844Z,70.42
2022-12-15T10:40:50.276Z,70.08
2022-12-15T10:43:37.312Z,70.16
2022-12-15T10:46:07.239Z,70.53
2022-12-15T10:48:33.718Z,70.01
2022-12-15T10:51:32.571Z,70.23
2022-12-15T10:54:01.706Z,70.30
2022-12-15T10:56:33.789Z,69.31
2022-12-15T10:59:04.019Z,70.07
2022-12-15T11:01:33.636Z,69.85
2022-12-15T11:04:00.599Z,70.10
2022-12-15T11:06:34.539Z,70.33
2022-12-15T11:09:10.149Z,70.21
2022-12-15T11:12:05.941Z,70.55
2022-12-15T11:14:52.753Z,70.28
2022-12-15T11:17:22.025Z,70.21
2022-12-15T11:20:04.865Z,70.22
2022-12-15T11:22:50.322Z,70.73
2022-12-15T11:25:29.214Z,70.14
2022-12-15T11:27:59.029Z,70.02
2022-12-15T11:30:33.719Z,70.49
2022-12-15T11:33:01.306Z,70.48
2022-12-15T11:35:39.032Z,70.34
2022-12-15T11:38:19.507Z,69.75
2022-12-15T11:40:45.910Z,70.44
2022-12-15T11:43:36.562Z,69.86
2022-12-15T11:46:20.198Z,70.06
2022-12-15T11:49:01.839Z,69.91
2022-12-15T11:51:42.563Z,70.16
2022-12-15T11:54:23.597Z,69.63
2022-12-15T11:57:10.760Z,70.20
2022-12-15T12:00:13.884Z,69.55
2022-12-15T12:02:58.674Z,70.57
2022-12-15T12:05:46.743Z,70.07
2022-12-15T12:08:40.120Z,69.88
2022-12-15T12:11:20.931Z,70.15
2022-12-15T12:14:12.075Z,70.53
2022-12-15T12:17:03.569Z,69.72
2022-12-15T12:19:52.263Z,70.18
2022-12-15T12:22:28.037Z,70.82
2022-12-15T12:25:15.594Z,70.76
2022-12-15T12:28:01.925Z,69.89
2022-12-15T12:30:38.054Z,70.00
2022-12-15T12:33:11.831Z,70.33
2022-12-15T12:35:45.739Z,70.48
2022-12-15T12:38:13.592Z,70.29
2022-12-15T12:40:59.653Z,70.56
2022-12-15T12:43:39.043Z,69.94
2022-12-15T12:46:14.985Z,70.73
2022-12-15T12:49:13.780Z,70.49
2022-12-15T12:51:41.950Z,70.28
2022-12-15T12:54:39.837Z,70.03
2022-12-15T12:57:12.018Z,70.11
2022-12-15T12:59:58.450Z,70.16
2022-12-15T13:02:25.439Z,70.15
2022-12-15T13:04:57.949Z,70.05
2022-12-15T13:07:36.263Z,69.98
2022-12-15T13:10:17.966Z,69.66
2022-12-15T13:12:52.303Z,69.37
2022-12-15T13:15:28.876Z,69.75
2022-12-15T13:18:04.556Z,69.47
2022-12-15T13:20:33.235Z,69.54
2022-12-15T13:23:25.273Z,69.92
2022-12-15T13:25:57.888Z,69.50
2022-12-15T13:28:42.585Z,69.66
2022-12-15T13:31:18.642Z,69.49
2022-12-15T13:33:50.747Z,69.71
2022-12-15T13:36:42.223Z,69.35
2022-12-15T13:39:14.619Z,69.28
2022-12-15T13:41:54.516Z,69.85
2022-12-15T13:44:48.873Z,69.27
2022-12-15T13:47:22.106Z,69.28
2022-12-15T13:50:01.327Z,69.17
2022-12-15T13:53:08.713Z,69.64
2022-12-15T13:55:32.451Z,69.49
2022-12-15T13:58:05.109Z,69.13
2022-12-15T14:00:32.765Z,69.35
2022-12-15T14:03:07.221Z,69.20
2022-12-15T14:05:33.773Z,69.70
2022-12-15T14:08:03.409Z,69.67
2022-12-15T14:10:32.786Z,69.66
2022-12-15T14:13:15.580Z,69.74
2022-12-15T14:15:50.801Z,69.07
2022-12-15T14:18:35.680Z,69.49
2022-12-15T14:21:06.556Z,69.38
2022-12-15T14:24:04.021Z,69.75
2022-12-15T14:26:31.758Z,69.92
2022-12-15T14:29:05.217Z,69.54
2022-12-15T14:31:31.894Z,69.90
2022-12-15T14:34:29.220Z,70.04
2022-12-15T14:36:59.474Z,70.05
2022-12-15T14:39:32.708Z,69.96
2022-12-15T14:42:01.295Z,70.07
2022-12-15T14:44:50.859Z,70.25
2022-12-15T14:47:26.756Z,70.01
2022-12-15T14:49:55.483Z,69.92
2022-12-15T14:52:35.610Z,69.64
2022-12-15T14:55:04.640Z,70.21
2022-12-15T14:57:45.163Z,69.50
2022-12-15T15:00:48.693Z,70.07
2022-12-15T15:05:49.924Z,69.64
2022-12-15T15:08:29.933Z,69.71
2022-12-15T15:11:01.418Z,69.55
2022-12-15T15:13:40.707Z,69.53
2022-12-15T15:16:15.471Z,69.62
2022-12-15T15:18:43.262Z,69.52
2022-12-15T15:21:18.173Z,70.05
2022-12-15T15:24:01.814Z,69.89
2022-12-15T15:26:30.147Z,69.81
2022-12-15T15:28:57.028Z,69.36
2022-12-15T15:31:41.257Z,69.48
2022-12-15T15:34:08.619Z,69.57
2022-12-15T15:36:37.816Z,69.88
2022-12-15T15:39:12.701Z,69.71
2022-12-15T15:41:39.232Z,69.38
2022-12-15T15:44:13.744Z,69.64
2022-12-15T15:46:47.994Z,69.53
2022-12-15T15:49:18.515Z,69.34
2022-12-15T15:51:45.318Z,69.48
2022-12-15T15:54:16.423Z,69.26
2022-12-15T15:56:42.825Z,69.68
2022-12-15T15:59:14.956Z,69.29
2022-12-15T16:01:41.595Z,69.33
2022-12-15T16:04:08.119Z,69.51
2022-12-15T16:06:36.018Z,69.34
2022-12-15T16:09:02.594Z,69.78
2022-12-15T16:11:30.829Z,69.71
2022-12-15T16:13:57.713Z,69.54
2022-12-15T16:16:29.933Z,69.43
2022-12-15T16:18:56.393Z,69.50
2022-12-15T16:21:27.012Z,69.02
2022-12-15T16:23:54.872Z,69.37
2022-12-15T16:26:27.891Z,69.59
2022-12-15T16:28:54.364Z,69.73
2022-12-15T16:31:41.977Z,69.56
2022-12-15T16:34:08.795Z,69.17
2022-12-15T16:36:35.383Z,69.48
2022-12-15T16:39:01.941Z,69.20
2022-12-15T16:41:28.326Z,69.65
2022-12-15T16:43:54.787Z,69.28
2022-12-15T16:46:21.184Z,69.51
2022-12-15T16:48:47.819Z,69.13
2022-12-15T16:51:32.455Z,69.29
2022-12-15T16:53:58.852Z,69.08
2022-12-15T16:56:25.302Z,69.35
2022-12-15T16:58:57.476Z,69.36
2022-12-15T17:01:29.360Z,69.25
2022-12-15T17:03:56.111Z,69.04
2022-12-15T17:06:22.623Z,69.30
2022-12-15T17:08:55.034Z,68.88
2022-12-15T17:11:23.788Z,69.15
2022-12-15T17:13:52.342Z,69.42
2022-12-15T17:16:21.063Z,68.90
2022-12-15T17:18:48.066Z,69.35
2022-12-15T17:21:34.156Z,68.96
2022-12-15T17:24:11.270Z,68.91
2022-12-15T17:26:37.909Z,69.06
2022-12-15T17:29:13.130Z,69.08
2022-12-15T17:31:39.539Z,68.86
2022-12-15T17:34:25.626Z,68.92
2022-12-15T17:36:52.540Z,68.59
2022-12-15T17:39:21.095Z,68.88
2022-12-15T17:42:04.359Z,68.93
2022-12-15T17:44:36.738Z,69.06
2022-12-15T17:47:05.650Z,68.61
2022-12-15T17:49:36.076Z,69.15
2022-12-15T17:52:07.699Z,68.67
2022-12-15T17:54:34.164Z,68.65
2022-12-15T17:57:00.599Z,68.96
2022-12-15T17:59:27.104Z,69.04
2022-12-15T18:01:56.811Z,69.30
2022-12-15T18:04:23.421Z,69.37
2022-12-15T18:06:49.894Z,68.71
2022-12-15T18:09:18.235Z,68.91
2022-12-15T18:11:46.889Z,69.07
2022-12-15T18:14:16.067Z,69.08
2022-12-15T18:16:43.465Z,69.32
2022-12-15T18:19:09.917Z,69.03
2022-12-15T18:21:37.135Z,69.11
2022-12-15T18:24:11.293Z,68.71
2022-12-15T18:26:38.071Z,69.21
2022-12-15T18:29:17.843Z,69.19
2022-12-15T18:31:47.013Z,69.28
2022-12-15T18:34:16.348Z,69.36
2022-12-15T18:36:42.971Z,69.18
2022-12-15T18:39:30.242Z,68.83
2022-12-15T18:41:57.254Z,69.18
2022-12-15T18:44:28.835Z,69.02
2022-12-15T18:46:55.606Z,69.31
2022-12-15T18:49:23.513Z,69.29
2022-12-15T18:51:50.405Z,69.46
2022-12-15T18:54:22.320Z,69.23
2022-12-15T18:56:49.998Z,68.95
2022-12-15T18:59:17.754Z,69.41
2022-12-15T19:01:46.183Z,69.27
2022-12-15T19:04:13.685Z,69.55
2022-12-15T19:06:40.949Z,69.22
2022-12-15T19:09:17.300Z,69.28
2022-12-15T19:12:06.483Z,69.19
2022-12-15T19:14:42.617Z,69.63
2022-12-15T19:17:33.677Z,69.49
2022-12-15T19:20:20.686Z,69.12
2022-12-15T19:22:48.530Z,68.67
2022-12-15T19:25:26.507Z,69.56
2022-12-15T19:28:00.652Z,69.06
2022-12-15T19:30:33.202Z,69.16
2022-12-15T19:33:01.185Z,69.09
2022-12-15T19:35:28.156Z,68.92
2022-12-15T19:37:57.254Z,69.29
2022-12-15T19:40:27.714Z,69.48
2022-12-15T19:42:55.495Z,69.59
2022-12-15T19:45:25.248Z,69.19
2022-12-15T19:47:51.999Z,69.30
2022-12-15T19:50:28.204Z,69.43
2022-12-15T19:52:59.234Z,69.17
2022-12-15T19:55:29.922Z,69.41
2022-12-15T19:57:56.353Z,69.02
2022-12-15T20:00:24.781Z,69.97
2022-12-15T20:02:54.511Z,69.73
2022-12-15T20:05:25.417Z,69.35
2022-12-15T20:07:54.593Z,69.66
2022-12-15T20:10:29.392Z,69.27
2022-12-15T20:12:58.518Z,69.67
2022-12-15T20:15:26.285Z,69.17
2022-12-15T20:17:58.634Z,69.54
2022-12-15T20:20:27.874Z,69.60
2022-12-15T20:22:57.586Z,69.57
2022-12-15T20:25:28.687Z,69.63
2022-12-15T20:27:56.352Z,69.52
2022-12-15T20:30:26.607Z,69.54
2022-12-15T20:32:53.519Z,69.42
2022-12-15T20:35:21.888Z,69.53
2022-12-15T20:37:49.522Z,69.59
2022-12-15T20:40:17.553Z,69.22
2022-12-15T20:42:43.935Z,69.30
2022-12-15T20:45:14.643Z,69.57
2022-12-15T20:47:43.965Z,69.32
2022-12-15T20:50:40.844Z,69.54
2022-12-15T20:53:23.775Z,69.51
2022-12-15T20:55:52.496Z,69.47
2022-12-15T20:58:19.588Z,69.51
2022-12-15T21:00:48.392Z,69.95
2022-12-15T21:03:26.894Z,69.08
2022-12-15T21:05:56.238Z,69.34
2022-12-15T21:08:31.106Z,69.40
2022-12-15T21:11:02.377Z,69.47
2022-12-15T21:13:32.956Z,69.18
2022-12-15T21:15:59.658Z,69.85
2022-12-15T21:19:18.227Z,69.31
2022-12-15T21:21:20.828Z,69.31
2022-12-15T21:23:47.643Z,69.38
2022-12-15T21:26:18.278Z,69.20
2022-12-15T21:28:44.787Z,70.05
2022-12-15T21:31:11.172Z,69.49
2022-12-15T21:33:37.551Z,69.34
2022-12-15T21:36:04.102Z,69.61
2022-12-15T21:38:36.504Z,69.37
2022-12-15T21:41:05.393Z,69.71
2022-12-15T21:43:35.231Z,69.66
2022-12-15T21:46:10.879Z,69.89
2022-12-15T21:48:55.936Z,69.84
2022-12-15T21:51:22.471Z,69.51
2022-12-15T21:53:48.919Z,69.60
2022-12-15T21:56:17.281Z,69.08
2022-12-15T21:58:44.870Z,69.71
2022-12-15T22:01:21.380Z,69.44
2022-12-15T22:03:52.153Z,69.69
2022-12-15T22:06:21.804Z,69.19
2022-12-15T22:08:48.970Z,69.59
2022-12-15T22:11:25.432Z,69.56
2022-12-15T22:13:55.116Z,69.69
2022-12-15T22:16:22.204Z,69.52
2022-12-15T22:18:51.484Z,69.73
2022-12-15T22:21:18.315Z,69.77
2022-12-15T22:23:47.834Z,69.18
2022-12-15T22:26:19.494Z,69.40
2022-12-15T22:28:46.013Z,69.51
2022-12-15T22:31:12.476Z,69.76
2022-12-15T22:33:38.858Z,69.88
2022-12-15T22:36:05.338Z,69.86
2022-12-15T22:38:32.002Z,70.00
2022-12-15T22:40:59.829Z,69.83
2022-12-15T22:43:36.513Z,69.88
2022-12-15T22:46:04.353Z,69.67
2022-12-15T22:48:34.599Z,69.88
2022-12-15T22:51:01.767Z,70.01
2022-12-15T22:53:31.681Z,69.26
2022-12-15T22:55:59.655Z,69.52
2022-12-15T22:58:36.757Z,70.06
2022-12-15T23:01:06.526Z,69.73
2022-12-15T23:03:34.434Z,69.44
2022-12-15T23:06:02.865Z,69.81
2022-12-15T23:08:30.867Z,70.32
2022-12-15T23:11:17.392Z,69.70
2022-12-15T23:13:44.481Z,69.78
2022-12-15T23:16:21.392Z,69.84
2022-12-15T23:18:53.822Z,69.81
2022-12-15T23:21:22.430Z,69.65
2022-12-15T23:23:49.367Z,69.98
2022-12-15T23:26:19.028Z,70.15
2022-12-15T23:28:45.884Z,69.71
2022-12-15T23:31:12.543Z,69.92
2022-12-15T23:33:39.384Z,70.01
2022-12-15T23:36:06.278Z,69.36
2022-12-15T23:38:32.863Z,69.72
2022-12-15T23:40:59.604Z,69.81
2022-12-15T23:43:28.564Z,69.38
2022-12-15T23:46:06.691Z,69.86
2022-12-15T23:48:35.654Z,69.41
2022-12-15T23:51:13.656Z,69.55
2022-12-15T23:53:41.400Z,69.38
2022-12-15T23:56:15.788Z,69.81
2022-12-15T23:58:43.840Z,69.58
